URO67 EDFH-EGHH
Flight info
| Callsign | URO67 |
|---|---|
| Flight time | 1h 4m |
| Altitude | 38000 |
| Route | RUDOT2E RUDOT DCT ADENU L608 DENUT L610 KOPUL Q63 IPKUS/N0413F240 M40 UMBUR |
| Aircraft | A346/H-SDE2E3FGHIJ3J4J5M1RWXY/LB1D1 |
Departure
| Time | 2026-04-30 19:44 |
|---|---|
| Airport | Frankfurt-Hahn Airport (EDFH) |
Arrival
| Time | 2026-04-30 20:49 |
|---|---|
| Airport | Bournemouth Airport (EGHH) |
| Time | Latitude | Longitude | Altitude | Speed | Heading |
|---|---|---|---|---|---|
| 2026-04-30 18:54 | 49.95266 | 7.27440 | 1609 ft | 0 kts | 123° |
| 2026-04-30 19:29 | 49.95278 | 7.27410 | 1620 ft | 4 kts | 118° |
| 2026-04-30 19:30 | 49.95330 | 7.27320 | 1622 ft | 4 kts | 136° |
| 2026-04-30 19:30 | 49.95355 | 7.27287 | 1621 ft | 0 kts | 142° |
| 2026-04-30 19:33 | 49.95354 | 7.27288 | 1621 ft | 0 kts | 145° |
| 2026-04-30 19:33 | 49.95335 | 7.27297 | 1621 ft | 5 kts | 175° |
| 2026-04-30 19:33 | 49.95309 | 7.27290 | 1621 ft | 0 kts | 200° |
| 2026-04-30 19:34 | 49.95309 | 7.27289 | 1621 ft | 0 kts | 200° |
| 2026-04-30 19:34 | 49.95243 | 7.27234 | 1617 ft | 15 kts | 211° |
| 2026-04-30 19:35 | 49.95138 | 7.27133 | 1624 ft | 19 kts | 212° |
| 2026-04-30 19:35 | 49.95031 | 7.27029 | 1625 ft | 16 kts | 212° |
| 2026-04-30 19:35 | 49.94955 | 7.26954 | 1627 ft | 9 kts | 212° |
| 2026-04-30 19:35 | 49.94918 | 7.26884 | 1625 ft | 8 kts | 263° |
| 2026-04-30 19:36 | 49.94931 | 7.26805 | 1629 ft | 4 kts | 296° |
| 2026-04-30 19:36 | 49.94932 | 7.26802 | 1629 ft | 0 kts | 298° |
| 2026-04-30 19:38 | 49.94934 | 7.26797 | 1629 ft | 2 kts | 298° |
| 2026-04-30 19:38 | 49.94946 | 7.26768 | 1629 ft | 5 kts | 313° |
| 2026-04-30 19:38 | 49.94992 | 7.26736 | 1627 ft | 10 kts | 349° |
| 2026-04-30 19:38 | 49.95084 | 7.26720 | 1625 ft | 14 kts | 346° |
| 2026-04-30 19:39 | 49.95088 | 7.26609 | 1627 ft | 13 kts | 225° |
| 2026-04-30 19:39 | 49.95009 | 7.26528 | 1628 ft | 15 kts | 211° |
| 2026-04-30 19:39 | 49.94894 | 7.26419 | 1629 ft | 24 kts | 211° |
| 2026-04-30 19:39 | 49.94732 | 7.26264 | 1629 ft | 31 kts | 213° |
| 2026-04-30 19:40 | 49.94542 | 7.26071 | 1633 ft | 35 kts | 213° |
| 2026-04-30 19:40 | 49.94332 | 7.25862 | 1641 ft | 36 kts | 212° |
| 2026-04-30 19:40 | 49.94119 | 7.25654 | 1641 ft | 36 kts | 213° |
| 2026-04-30 19:40 | 49.93905 | 7.25441 | 1642 ft | 36 kts | 212° |
| 2026-04-30 19:41 | 49.93699 | 7.25237 | 1648 ft | 34 kts | 212° |
| 2026-04-30 19:41 | 49.93502 | 7.25043 | 1652 ft | 33 kts | 212° |
| 2026-04-30 19:41 | 49.93350 | 7.24896 | 1650 ft | 15 kts | 211° |
| 2026-04-30 19:41 | 49.93264 | 7.24950 | 1648 ft | 17 kts | 126° |
| 2026-04-30 19:42 | 49.93199 | 7.25026 | 1650 ft | 5 kts | 201° |
| 2026-04-30 19:42 | 49.93169 | 7.25009 | 1651 ft | 5 kts | 199° |
| 2026-04-30 19:42 | 49.93132 | 7.24987 | 1652 ft | 8 kts | 205° |
| 2026-04-30 19:42 | 49.93089 | 7.24918 | 1653 ft | 10 kts | 261° |
| 2026-04-30 19:43 | 49.93110 | 7.24800 | 1652 ft | 13 kts | 297° |
| 2026-04-30 19:43 | 49.93186 | 7.24741 | 1651 ft | 11 kts | 14° |
| 2026-04-30 19:43 | 49.93232 | 7.24779 | 1652 ft | 2 kts | 32° |
| 2026-04-30 19:44 | 49.93429 | 7.24972 | 1653 ft | 72 kts | 32° |
| 2026-04-30 19:44 | 49.94101 | 7.25631 | 1642 ft | 154 kts | 33° |
| 2026-04-30 19:44 | 49.95189 | 7.26676 | 1808 ft | 203 kts | 35° |
| 2026-04-30 19:44 | 49.96423 | 7.27831 | 2824 ft | 209 kts | 40° |
| 2026-04-30 19:45 | 49.97677 | 7.29075 | 3835 ft | 217 kts | 40° |
| 2026-04-30 19:45 | 49.98972 | 7.30401 | 4624 ft | 229 kts | 40° |
| 2026-04-30 19:45 | 50.00354 | 7.31799 | 5293 ft | 246 kts | 39° |
| 2026-04-30 19:45 | 50.01854 | 7.33277 | 5873 ft | 265 kts | 34° |
| 2026-04-30 19:46 | 50.03020 | 7.33989 | 6347 ft | 278 kts | 17° |
| 2026-04-30 19:46 | 50.05628 | 7.33754 | 7535 ft | 293 kts | 342° |
| 2026-04-30 19:46 | 50.07372 | 7.32049 | 8436 ft | 301 kts | 315° |
| 2026-04-30 19:46 | 50.08202 | 7.30313 | 9012 ft | 303 kts | 297° |
| 2026-04-30 19:47 | 50.08748 | 7.27146 | 9881 ft | 305 kts | 269° |
| 2026-04-30 19:47 | 50.08345 | 7.23925 | 10681 ft | 303 kts | 242° |
| 2026-04-30 19:47 | 50.07109 | 7.21290 | 11439 ft | 303 kts | 222° |
| 2026-04-30 19:47 | 50.05536 | 7.19016 | 12015 ft | 316 kts | 218° |
| 2026-04-30 19:48 | 50.03870 | 7.16596 | 12475 ft | 336 kts | 223° |
| 2026-04-30 19:48 | 50.02321 | 7.13732 | 12925 ft | 357 kts | 232° |
| 2026-04-30 19:48 | 50.01011 | 7.10389 | 13335 ft | 377 kts | 242° |
| 2026-04-30 19:48 | 50.00002 | 7.06519 | 13826 ft | 393 kts | 253° |
| 2026-04-30 19:49 | 49.99773 | 7.02256 | 14504 ft | 400 kts | 276° |
| 2026-04-30 19:49 | 50.02099 | 6.94514 | 16116 ft | 400 kts | 309° |
| 2026-04-30 19:49 | 50.03634 | 6.90848 | 16843 ft | 408 kts | 297° |
| 2026-04-30 19:50 | 50.04654 | 6.86683 | 17590 ft | 413 kts | 292° |
| 2026-04-30 19:50 | 50.05890 | 6.82629 | 18319 ft | 416 kts | 301° |
| 2026-04-30 19:50 | 50.07366 | 6.78720 | 19035 ft | 420 kts | 302° |
| 2026-04-30 19:50 | 50.08884 | 6.74803 | 19677 ft | 424 kts | 303° |
| 2026-04-30 19:51 | 50.10406 | 6.70911 | 20327 ft | 428 kts | 303° |
| 2026-04-30 19:51 | 50.11967 | 6.66930 | 20998 ft | 431 kts | 303° |
| 2026-04-30 19:51 | 50.13545 | 6.62905 | 21657 ft | 435 kts | 303° |
| 2026-04-30 19:51 | 50.15131 | 6.58855 | 22319 ft | 439 kts | 303° |
| 2026-04-30 19:52 | 50.16736 | 6.54750 | 22967 ft | 442 kts | 303° |
| 2026-04-30 19:52 | 50.18324 | 6.50683 | 23590 ft | 446 kts | 303° |
| 2026-04-30 19:52 | 50.19967 | 6.46470 | 24182 ft | 450 kts | 303° |
| 2026-04-30 19:52 | 50.21601 | 6.42272 | 24709 ft | 454 kts | 302° |
| 2026-04-30 19:53 | 50.23228 | 6.38087 | 25202 ft | 458 kts | 302° |
| 2026-04-30 19:53 | 50.24889 | 6.33806 | 25703 ft | 462 kts | 302° |
| 2026-04-30 19:53 | 50.26560 | 6.29492 | 26246 ft | 464 kts | 302° |
| 2026-04-30 19:53 | 50.28243 | 6.25141 | 26796 ft | 467 kts | 302° |
| 2026-04-30 19:54 | 50.29928 | 6.20775 | 27320 ft | 470 kts | 302° |
| 2026-04-30 19:54 | 50.31625 | 6.16372 | 27827 ft | 473 kts | 302° |
| 2026-04-30 19:54 | 50.33332 | 6.11935 | 28347 ft | 476 kts | 302° |
| 2026-04-30 19:54 | 50.35047 | 6.07471 | 28837 ft | 479 kts | 302° |
| 2026-04-30 19:55 | 50.36774 | 6.02965 | 29349 ft | 482 kts | 302° |
| 2026-04-30 19:55 | 50.38488 | 5.98490 | 29813 ft | 486 kts | 302° |
| 2026-04-30 19:55 | 50.40236 | 5.93923 | 30299 ft | 488 kts | 302° |
| 2026-04-30 19:55 | 50.41983 | 5.89340 | 30846 ft | 487 kts | 302° |
| 2026-04-30 19:56 | 50.43714 | 5.84791 | 31489 ft | 484 kts | 302° |
| 2026-04-30 19:56 | 50.45442 | 5.80241 | 32130 ft | 482 kts | 302° |
| 2026-04-30 19:56 | 50.47152 | 5.75733 | 32756 ft | 479 kts | 302° |
| 2026-04-30 19:56 | 50.48858 | 5.71230 | 33329 ft | 478 kts | 302° |
| 2026-04-30 19:57 | 50.50557 | 5.66737 | 33910 ft | 476 kts | 301° |
| 2026-04-30 19:57 | 50.52244 | 5.62264 | 34463 ft | 474 kts | 302° |
| 2026-04-30 19:57 | 50.53923 | 5.57807 | 34962 ft | 472 kts | 302° |
| 2026-04-30 19:57 | 50.55575 | 5.53421 | 35401 ft | 471 kts | 301° |
| 2026-04-30 19:58 | 50.57248 | 5.48969 | 35825 ft | 471 kts | 301° |
| 2026-04-30 19:58 | 50.58911 | 5.44533 | 36255 ft | 470 kts | 301° |
| 2026-04-30 19:58 | 50.60570 | 5.40098 | 36672 ft | 469 kts | 301° |
| 2026-04-30 19:58 | 50.62228 | 5.35658 | 37016 ft | 470 kts | 301° |
| 2026-04-30 19:59 | 50.63889 | 5.31206 | 37315 ft | 471 kts | 301° |
| 2026-04-30 19:59 | 50.65547 | 5.26751 | 37600 ft | 472 kts | 301° |
| 2026-04-30 19:59 | 50.68886 | 5.17760 | 38164 ft | 474 kts | 301° |
| 2026-04-30 20:00 | 50.70556 | 5.13254 | 38292 ft | 475 kts | 301° |
| 2026-04-30 20:00 | 50.73890 | 5.04242 | 38297 ft | 477 kts | 301° |
| 2026-04-30 20:01 | 50.78895 | 4.90620 | 38293 ft | 477 kts | 301° |
| 2026-04-30 20:01 | 50.82208 | 4.81571 | 38298 ft | 477 kts | 300° |
| 2026-04-30 20:02 | 50.87191 | 4.67908 | 38295 ft | 477 kts | 300° |
| 2026-04-30 20:03 | 50.92161 | 4.54208 | 38303 ft | 478 kts | 300° |
| 2026-04-30 20:03 | 50.95473 | 4.45025 | 38305 ft | 478 kts | 300° |
| 2026-04-30 20:04 | 50.98778 | 4.35836 | 38304 ft | 478 kts | 300° |
| 2026-04-30 20:05 | 51.03702 | 4.22085 | 38299 ft | 479 kts | 299° |
| 2026-04-30 20:05 | 51.08640 | 4.08220 | 38294 ft | 478 kts | 299° |
| 2026-04-30 20:06 | 51.11915 | 3.98984 | 38287 ft | 478 kts | 299° |
| 2026-04-30 20:06 | 51.15181 | 3.89742 | 38276 ft | 478 kts | 299° |
| 2026-04-30 20:07 | 51.18411 | 3.80561 | 38275 ft | 477 kts | 299° |
| 2026-04-30 20:08 | 51.22760 | 3.66316 | 38272 ft | 476 kts | 290° |
| 2026-04-30 20:08 | 51.24802 | 3.56248 | 38263 ft | 475 kts | 283° |
| 2026-04-30 20:09 | 51.26246 | 3.45933 | 38265 ft | 475 kts | 281° |
| 2026-04-30 20:09 | 51.28258 | 3.30470 | 38259 ft | 474 kts | 280° |
| 2026-04-30 20:10 | 51.30230 | 3.14998 | 38251 ft | 473 kts | 280° |
| 2026-04-30 20:11 | 51.32188 | 2.99501 | 38250 ft | 474 kts | 280° |
| 2026-04-30 20:11 | 51.33484 | 2.89156 | 38253 ft | 473 kts | 279° |
| 2026-04-30 20:12 | 51.35401 | 2.73721 | 38247 ft | 472 kts | 279° |
| 2026-04-30 20:13 | 51.36678 | 2.63358 | 38246 ft | 473 kts | 279° |
| 2026-04-30 20:13 | 51.37945 | 2.53009 | 38245 ft | 472 kts | 279° |
| 2026-04-30 20:14 | 51.39206 | 2.42674 | 38241 ft | 473 kts | 279° |
| 2026-04-30 20:14 | 51.40459 | 2.32274 | 38247 ft | 475 kts | 279° |
| 2026-04-30 20:15 | 51.41705 | 2.21920 | 38244 ft | 476 kts | 279° |
| 2026-04-30 20:15 | 51.42986 | 2.11481 | 38246 ft | 477 kts | 279° |
| 2026-04-30 20:16 | 51.44250 | 2.01026 | 38247 ft | 476 kts | 279° |
| 2026-04-30 20:16 | 51.45488 | 1.90602 | 38255 ft | 476 kts | 279° |
| 2026-04-30 20:17 | 51.46710 | 1.80118 | 38246 ft | 477 kts | 279° |
| 2026-04-30 20:17 | 51.47918 | 1.69629 | 38145 ft | 474 kts | 279° |
| 2026-04-30 20:17 | 51.48516 | 1.64414 | 37431 ft | 476 kts | 278° |
| 2026-04-30 20:18 | 51.49119 | 1.59128 | 36381 ft | 485 kts | 278° |
| 2026-04-30 20:18 | 51.49719 | 1.53866 | 35860 ft | 482 kts | 278° |
| 2026-04-30 20:18 | 51.50319 | 1.48579 | 35401 ft | 478 kts | 278° |
| 2026-04-30 20:18 | 51.50912 | 1.43329 | 34953 ft | 476 kts | 278° |
| 2026-04-30 20:19 | 51.51503 | 1.38093 | 34408 ft | 476 kts | 277° |
| 2026-04-30 20:19 | 51.51894 | 1.34602 | 33979 ft | 477 kts | 277° |
| 2026-04-30 20:19 | 51.52675 | 1.27560 | 33112 ft | 477 kts | 277° |
| 2026-04-30 20:19 | 51.53254 | 1.22301 | 32479 ft | 477 kts | 277° |
| 2026-04-30 20:20 | 51.53725 | 1.17021 | 31847 ft | 477 kts | 274° |
| 2026-04-30 20:20 | 51.54014 | 1.11694 | 31212 ft | 476 kts | 270° |
| 2026-04-30 20:20 | 51.54114 | 1.06447 | 30584 ft | 476 kts | 267° |
| 2026-04-30 20:20 | 51.54069 | 1.01114 | 29866 ft | 477 kts | 266° |
| 2026-04-30 20:21 | 51.53995 | 0.95793 | 29269 ft | 476 kts | 265° |
| 2026-04-30 20:21 | 51.53917 | 0.90455 | 28854 ft | 475 kts | 265° |
| 2026-04-30 20:21 | 51.53840 | 0.85150 | 28423 ft | 472 kts | 265° |
| 2026-04-30 20:21 | 51.53763 | 0.79877 | 28001 ft | 469 kts | 265° |
| 2026-04-30 20:22 | 51.53687 | 0.74655 | 27574 ft | 465 kts | 265° |
| 2026-04-30 20:22 | 51.53611 | 0.69523 | 27154 ft | 462 kts | 265° |
| 2026-04-30 20:22 | 51.53533 | 0.64353 | 26736 ft | 459 kts | 265° |
| 2026-04-30 20:22 | 51.53453 | 0.59237 | 26304 ft | 455 kts | 265° |
| 2026-04-30 20:23 | 51.53372 | 0.54163 | 25889 ft | 452 kts | 265° |
| 2026-04-30 20:23 | 51.53288 | 0.49120 | 25473 ft | 448 kts | 265° |
| 2026-04-30 20:23 | 51.53185 | 0.44128 | 25062 ft | 444 kts | 262° |
| 2026-04-30 20:23 | 51.52770 | 0.39254 | 24644 ft | 436 kts | 254° |
| 2026-04-30 20:24 | 51.51970 | 0.34595 | 24228 ft | 429 kts | 246° |
| 2026-04-30 20:24 | 51.50869 | 0.30174 | 23827 ft | 423 kts | 243° |
| 2026-04-30 20:24 | 51.49697 | 0.25855 | 23363 ft | 420 kts | 242° |
| 2026-04-30 20:24 | 51.48520 | 0.21563 | 22932 ft | 416 kts | 242° |
| 2026-04-30 20:25 | 51.46250 | 0.13178 | 22114 ft | 408 kts | 243° |
| 2026-04-30 20:25 | 51.45127 | 0.09003 | 21700 ft | 405 kts | 243° |
| 2026-04-30 20:26 | 51.42903 | 0.00764 | 20880 ft | 399 kts | 243° |
| 2026-04-30 20:26 | 51.40711 | -0.07351 | 20045 ft | 394 kts | 242° |
| 2026-04-30 20:26 | 51.39615 | -0.11382 | 19651 ft | 391 kts | 242° |
| 2026-04-30 20:27 | 51.37446 | -0.19346 | 18853 ft | 387 kts | 243° |
| 2026-04-30 20:27 | 51.35296 | -0.27223 | 17987 ft | 384 kts | 243° |
| 2026-04-30 20:28 | 51.33168 | -0.34990 | 17175 ft | 378 kts | 243° |
| 2026-04-30 20:28 | 51.31114 | -0.42707 | 16347 ft | 375 kts | 246° |
| 2026-04-30 20:29 | 51.29647 | -0.50867 | 15962 ft | 392 kts | 254° |
| 2026-04-30 20:30 | 51.27945 | -0.63691 | 16018 ft | 395 kts | 255° |
| 2026-04-30 20:30 | 51.26220 | -0.76577 | 15465 ft | 394 kts | 254° |
| 2026-04-30 20:31 | 51.24684 | -0.87914 | 14430 ft | 381 kts | 254° |
| 2026-04-30 20:32 | 51.23082 | -0.99690 | 14144 ft | 341 kts | 253° |
| 2026-04-30 20:32 | 51.22101 | -1.06817 | 13970 ft | 316 kts | 253° |
| 2026-04-30 20:33 | 51.21635 | -1.10184 | 13883 ft | 304 kts | 252° |
| 2026-04-30 20:33 | 51.20757 | -1.16505 | 13733 ft | 279 kts | 252° |
| 2026-04-30 20:33 | 51.20345 | -1.19470 | 13661 ft | 267 kts | 252° |
| 2026-04-30 20:34 | 51.18897 | -1.24429 | 13438 ft | 238 kts | 209° |
| 2026-04-30 20:34 | 51.15844 | -1.26061 | 12739 ft | 234 kts | 191° |
| 2026-04-30 20:35 | 51.14266 | -1.26688 | 12457 ft | 233 kts | 191° |
| 2026-04-30 20:35 | 51.12693 | -1.27326 | 12171 ft | 232 kts | 191° |
| 2026-04-30 20:35 | 51.09577 | -1.28616 | 11622 ft | 230 kts | 192° |
| 2026-04-30 20:36 | 51.08033 | -1.29261 | 11353 ft | 229 kts | 192° |
| 2026-04-30 20:36 | 51.06496 | -1.29905 | 11085 ft | 228 kts | 192° |
| 2026-04-30 20:36 | 51.03426 | -1.31192 | 10546 ft | 227 kts | 192° |
| 2026-04-30 20:37 | 51.01920 | -1.31822 | 10286 ft | 227 kts | 193° |
| 2026-04-30 20:37 | 51.00387 | -1.32464 | 10023 ft | 226 kts | 193° |
| 2026-04-30 20:37 | 50.98863 | -1.33102 | 9735 ft | 226 kts | 193° |
| 2026-04-30 20:37 | 50.97346 | -1.33737 | 9466 ft | 225 kts | 193° |
| 2026-04-30 20:38 | 50.95875 | -1.34571 | 9153 ft | 227 kts | 212° |
| 2026-04-30 20:38 | 50.94804 | -1.36388 | 9008 ft | 234 kts | 236° |
| 2026-04-30 20:38 | 50.93996 | -1.38662 | 9053 ft | 237 kts | 238° |
| 2026-04-30 20:39 | 50.92396 | -1.43258 | 9074 ft | 237 kts | 237° |
| 2026-04-30 20:39 | 50.91588 | -1.45556 | 8787 ft | 238 kts | 237° |
| 2026-04-30 20:39 | 50.90781 | -1.47840 | 8500 ft | 236 kts | 237° |
| 2026-04-30 20:40 | 50.89197 | -1.52305 | 7994 ft | 231 kts | 237° |
| 2026-04-30 20:40 | 50.88408 | -1.54519 | 7736 ft | 229 kts | 237° |
| 2026-04-30 20:40 | 50.87625 | -1.56720 | 7482 ft | 227 kts | 237° |
| 2026-04-30 20:41 | 50.86077 | -1.61054 | 6998 ft | 224 kts | 237° |
| 2026-04-30 20:41 | 50.85310 | -1.63201 | 6749 ft | 223 kts | 237° |
| 2026-04-30 20:41 | 50.84545 | -1.65341 | 6502 ft | 222 kts | 237° |
| 2026-04-30 20:41 | 50.83784 | -1.67467 | 6276 ft | 221 kts | 237° |
| 2026-04-30 20:42 | 50.83029 | -1.69575 | 6019 ft | 220 kts | 237° |
| 2026-04-30 20:42 | 50.82274 | -1.71684 | 5782 ft | 219 kts | 237° |
| 2026-04-30 20:42 | 50.80774 | -1.75861 | 5303 ft | 219 kts | 237° |
| 2026-04-30 20:43 | 50.80019 | -1.77957 | 5054 ft | 218 kts | 237° |
| 2026-04-30 20:43 | 50.79269 | -1.80043 | 4819 ft | 218 kts | 237° |
| 2026-04-30 20:43 | 50.78516 | -1.82136 | 4575 ft | 218 kts | 237° |
| 2026-04-30 20:44 | 50.77786 | -1.86708 | 4098 ft | 221 kts | 269° |
| 2026-04-30 20:44 | 50.77885 | -1.89127 | 3834 ft | 220 kts | 270° |
| 2026-04-30 20:44 | 50.78108 | -1.93974 | 3358 ft | 221 kts | 270° |
| 2026-04-30 20:45 | 50.78306 | -1.98813 | 2912 ft | 215 kts | 269° |
| 2026-04-30 20:45 | 50.78231 | -2.01057 | 2616 ft | 198 kts | 241° |
| 2026-04-30 20:45 | 50.77377 | -2.02476 | 2414 ft | 167 kts | 197° |
| 2026-04-30 20:46 | 50.75306 | -2.00452 | 2041 ft | 148 kts | 83° |
| 2026-04-30 20:46 | 50.75660 | -1.98948 | 1871 ft | 142 kts | 77° |
| 2026-04-30 20:47 | 50.76128 | -1.95993 | 1380 ft | 138 kts | 87° |
| 2026-04-30 20:47 | 50.76334 | -1.94497 | 1350 ft | 140 kts | 81° |
| 2026-04-30 20:48 | 50.76782 | -1.91534 | 1032 ft | 139 kts | 79° |
| 2026-04-30 20:48 | 50.77038 | -1.90056 | 806 ft | 139 kts | 78° |
| 2026-04-30 20:48 | 50.77285 | -1.88574 | 658 ft | 141 kts | 78° |
| 2026-04-30 20:48 | 50.77529 | -1.87082 | 414 ft | 139 kts | 77° |
| 2026-04-30 20:49 | 50.77779 | -1.85609 | 206 ft | 138 kts | 77° |
| 2026-04-30 20:49 | 50.78022 | -1.84143 | 51 ft | 130 kts | 75° |
| 2026-04-30 20:49 | 50.78202 | -1.83083 | 49 ft | 49 kts | 75° |
| 2026-04-30 20:50 | 50.78230 | -1.82845 | 52 ft | 3 kts | 104° |
| 2026-04-30 20:50 | 50.78221 | -1.82804 | 50 ft | 5 kts | 111° |
| 2026-04-30 20:50 | 50.78220 | -1.82742 | 52 ft | 6 kts | 61° |
| 2026-04-30 20:50 | 50.78248 | -1.82728 | 52 ft | 2 kts | 319° |
| 2026-04-30 20:51 | 50.78250 | -1.82782 | 51 ft | 10 kts | 261° |
| 2026-04-30 20:51 | 50.78189 | -1.83158 | 49 ft | 21 kts | 255° |
| 2026-04-30 20:51 | 50.78148 | -1.83397 | 51 ft | 24 kts | 255° |
| 2026-04-30 20:52 | 50.78103 | -1.83661 | 52 ft | 25 kts | 255° |
| 2026-04-30 20:52 | 50.78073 | -1.83839 | 50 ft | 10 kts | 245° |
| 2026-04-30 20:52 | 50.77917 | -1.83842 | 54 ft | 14 kts | 165° |
| 2026-04-30 20:53 | 50.77808 | -1.83796 | 53 ft | 18 kts | 165° |
| 2026-04-30 20:53 | 50.77692 | -1.83747 | 54 ft | 9 kts | 165° |
| 2026-04-30 20:53 | 50.77667 | -1.83752 | 54 ft | 4 kts | 245° |
| 2026-04-30 20:54 | 50.77696 | -1.83891 | 54 ft | 11 kts | 299° |
| 2026-04-30 20:54 | 50.77731 | -1.83970 | 52 ft | 7 kts | 311° |
| 2026-04-30 20:54 | 50.77762 | -1.84046 | 50 ft | 7 kts | 292° |
| 2026-04-30 20:55 | 50.77768 | -1.84073 | 54 ft | 0 kts | 287° |